createdAt,value
2023-07-18T00:00:26.058Z,100057.77
2023-07-18T00:02:55.708Z,100059.89
2023-07-18T00:05:24.739Z,100055.70
2023-07-18T00:07:53.761Z,100048.59
2023-07-18T00:10:23.413Z,100045.30
2023-07-18T00:12:52.488Z,100047.73
2023-07-18T00:15:22.820Z,100048.36
2023-07-18T00:17:52.533Z,100044.60
2023-07-18T00:20:23.878Z,100038.76
2023-07-18T00:22:53.006Z,100035.11
2023-07-18T00:25:24.275Z,100037.80
2023-07-18T00:27:54.599Z,100034.13
2023-07-18T00:30:24.670Z,100049.89
2023-07-18T00:32:53.813Z,100036.29
2023-07-18T00:35:23.321Z,100030.69
2023-07-18T00:37:53.175Z,100037.40
2023-07-18T00:40:22.207Z,100042.70
2023-07-18T00:42:51.157Z,100055.10
2023-07-18T00:45:20.520Z,100061.95
2023-07-18T00:47:51.536Z,100065.84
2023-07-18T00:50:22.356Z,100074.03
2023-07-18T00:52:53.697Z,100092.39
2023-07-18T00:55:23.089Z,100109.85
2023-07-18T00:57:54.393Z,100128.05
2023-07-18T01:00:24.101Z,100123.38
2023-07-18T01:02:53.231Z,100113.71
2023-07-18T01:05:22.927Z,100127.36
2023-07-18T01:07:51.847Z,100124.47
2023-07-18T01:10:24.210Z,100130.02
2023-07-18T01:12:53.969Z,100133.06
2023-07-18T01:15:23.762Z,100141.00
2023-07-18T01:17:52.922Z,100147.14
2023-07-18T01:20:23.408Z,100166.16
2023-07-18T01:22:54.363Z,100181.56
2023-07-18T01:25:23.853Z,100189.81
2023-07-18T01:27:55.255Z,100197.86
2023-07-18T01:30:26.412Z,100209.41
2023-07-18T01:32:56.029Z,100223.77
2023-07-18T01:35:26.738Z,100236.94
2023-07-18T01:37:57.654Z,100250.91
2023-07-18T01:40:27.311Z,100261.32
2023-07-18T01:42:57.419Z,100279.00
2023-07-18T01:45:28.891Z,100297.87
2023-07-18T01:47:59.613Z,100314.20
2023-07-18T01:50:28.808Z,100322.80
2023-07-18T01:52:57.721Z,100327.06
2023-07-18T01:55:26.998Z,100337.20
2023-07-18T01:57:55.949Z,100324.34
2023-07-18T02:00:25.305Z,100317.05
2023-07-18T02:02:55.128Z,100313.80
2023-07-18T02:05:25.897Z,100323.84
2023-07-18T02:07:55.051Z,100330.21
2023-07-18T02:10:25.304Z,100331.62
2023-07-18T02:12:55.754Z,100335.52
2023-07-18T02:15:24.610Z,100332.42
2023-07-18T02:17:55.134Z,100329.63
2023-07-18T02:20:24.159Z,100328.02
2023-07-18T02:22:53.225Z,100334.21
2023-07-18T02:25:22.060Z,100342.35
2023-07-18T02:27:50.850Z,100338.47
2023-07-18T02:30:19.875Z,100325.89
2023-07-18T02:32:48.615Z,100300.14
2023-07-18T02:35:19.267Z,100297.57
2023-07-18T02:37:49.432Z,100263.02
2023-07-18T02:40:19.599Z,100239.77
2023-07-18T02:42:48.705Z,100248.89
2023-07-18T02:45:17.551Z,100248.95
2023-07-18T02:47:46.446Z,100254.58
2023-07-18T02:50:15.484Z,100256.50
2023-07-18T02:52:45.048Z,100257.77
2023-07-18T02:55:14.047Z,100256.63
2023-07-18T02:57:42.956Z,100258.98
2023-07-18T03:00:20.631Z,100259.62
2023-07-18T03:02:50.962Z,100261.86
2023-07-18T03:05:20.759Z,100258.75
2023-07-18T03:07:49.882Z,100274.52
2023-07-18T03:10:18.960Z,100270.35
2023-07-18T03:12:49.961Z,100268.86
2023-07-18T03:15:20.729Z,100263.48
2023-07-18T03:17:49.720Z,100263.91
2023-07-18T03:20:19.909Z,100264.39
2023-07-18T03:22:50.069Z,100266.70
2023-07-18T03:25:22.903Z,100284.31
2023-07-18T03:27:55.617Z,100307.15
2023-07-18T03:30:25.165Z,100305.36
2023-07-18T03:32:54.505Z,100310.79
2023-07-18T03:35:23.632Z,100317.51
2023-07-18T03:37:52.624Z,100315.23
2023-07-18T03:40:22.219Z,100314.95
2023-07-18T03:42:51.277Z,100322.21
2023-07-18T03:45:21.072Z,100324.32
2023-07-18T03:47:49.932Z,100335.16
2023-07-18T03:50:19.886Z,100346.09
2023-07-18T03:52:49.553Z,100348.42
2023-07-18T03:55:18.554Z,100343.85
2023-07-18T03:57:48.416Z,100342.54
2023-07-18T04:00:19.244Z,100339.66
2023-07-18T04:02:49.813Z,100349.56
2023-07-18T04:05:19.661Z,100353.41
2023-07-18T04:07:50.251Z,100348.43
2023-07-18T04:10:20.185Z,100345.92
2023-07-18T04:12:48.992Z,100343.27
2023-07-18T04:15:18.169Z,100346.80
2023-07-18T04:17:47.068Z,100342.56
2023-07-18T04:20:20.474Z,100343.90
2023-07-18T04:22:49.379Z,100342.13
2023-07-18T04:25:18.537Z,100333.93
2023-07-18T04:27:48.305Z,100332.12
2023-07-18T04:30:17.391Z,100330.10
2023-07-18T04:32:47.483Z,100335.23
2023-07-18T04:35:20.224Z,100333.22
2023-07-18T04:37:50.876Z,100344.44
2023-07-18T04:40:20.232Z,100349.35
2023-07-18T04:42:49.169Z,100354.52
2023-07-18T04:45:19.143Z,100354.91
2023-07-18T04:47:48.460Z,100359.05
2023-07-18T04:50:17.699Z,100364.87
2023-07-18T04:52:46.445Z,100363.71
2023-07-18T04:55:17.374Z,100370.48
2023-07-18T04:57:46.139Z,100377.08
2023-07-18T05:00:17.573Z,100380.59
2023-07-18T05:02:46.443Z,100393.05
2023-07-18T05:05:17.893Z,100390.78
2023-07-18T05:07:48.097Z,100393.67
2023-07-18T05:10:17.395Z,100393.19
2023-07-18T05:12:46.203Z,100392.90
2023-07-18T05:15:15.394Z,100387.84
2023-07-18T05:17:44.497Z,100391.77
2023-07-18T05:20:15.641Z,100391.08
2023-07-18T05:22:46.349Z,100392.23
2023-07-18T05:25:17.106Z,100388.37
2023-07-18T05:27:46.938Z,100391.09
2023-07-18T05:30:18.610Z,100390.05
2023-07-18T05:32:51.928Z,100393.64
2023-07-18T05:35:21.558Z,100403.11
2023-07-18T05:37:51.208Z,100410.20
2023-07-18T05:40:22.659Z,100413.48
2023-07-18T05:42:52.127Z,100414.92
2023-07-18T05:45:22.788Z,100417.74
2023-07-18T05:47:52.032Z,100415.46
2023-07-18T05:50:23.466Z,100419.67
2023-07-18T05:52:52.411Z,100420.28
2023-07-18T05:55:22.724Z,100416.86
2023-07-18T05:57:51.645Z,100419.71
2023-07-18T06:00:22.217Z,100422.02
2023-07-18T06:02:54.296Z,100422.38
2023-07-18T06:05:24.411Z,100426.11
2023-07-18T06:07:54.052Z,100430.46
2023-07-18T06:10:23.114Z,100427.98
2023-07-18T06:12:51.982Z,100430.79
2023-07-18T06:15:21.005Z,100433.98
2023-07-18T06:17:49.964Z,100436.55
2023-07-18T06:20:19.586Z,100437.80
2023-07-18T06:22:48.983Z,100434.25
2023-07-18T06:25:18.186Z,100433.66
2023-07-18T06:27:47.522Z,100445.29
2023-07-18T06:30:17.238Z,100441.28
2023-07-18T06:32:46.194Z,100445.52
2023-07-18T06:37:47.493Z,100449.23
2023-07-18T06:40:16.869Z,100449.39
2023-07-18T06:42:46.901Z,100448.39
2023-07-18T06:45:16.086Z,100452.88
2023-07-18T06:47:45.271Z,100450.23
2023-07-18T06:50:14.903Z,100457.23
2023-07-18T06:52:44.580Z,100454.12
2023-07-18T06:55:13.636Z,100456.98
2023-07-18T06:57:44.773Z,100459.58
2023-07-18T07:00:15.744Z,100460.52
2023-07-18T07:02:45.326Z,100466.25
2023-07-18T07:05:15.195Z,100466.61
2023-07-18T07:07:44.298Z,100465.73
2023-07-18T07:10:13.397Z,100470.65
2023-07-18T07:12:43.239Z,100466.39
2023-07-18T07:15:13.061Z,100472.09
2023-07-18T07:17:42.355Z,100470.38
2023-07-18T07:20:13.925Z,100476.04
2023-07-18T07:22:46.929Z,100479.40
2023-07-18T07:25:17.242Z,100474.86
2023-07-18T07:27:47.652Z,100483.54
2023-07-18T07:30:17.305Z,100480.23
2023-07-18T07:32:48.485Z,100477.63
2023-07-18T07:35:19.120Z,100473.20
2023-07-18T07:37:48.479Z,100472.48
2023-07-18T07:40:17.824Z,100473.98
2023-07-18T07:42:47.942Z,100474.67
2023-07-18T07:45:17.716Z,100478.67
2023-07-18T07:47:46.829Z,100482.23
2023-07-18T07:50:16.803Z,100481.04
2023-07-18T07:52:46.834Z,100483.30
2023-07-18T07:55:18.424Z,100489.56
2023-07-18T07:57:48.281Z,100492.52
2023-07-18T08:00:20.851Z,100492.80
2023-07-18T08:02:50.287Z,100494.21
2023-07-18T08:05:19.717Z,100490.11
2023-07-18T08:07:49.297Z,100490.95
2023-07-18T08:10:19.409Z,100495.30
2023-07-18T08:12:49.519Z,100493.52
2023-07-18T08:15:20.367Z,100494.84
2023-07-18T08:17:50.084Z,100498.57
2023-07-18T08:20:20.214Z,100495.81
2023-07-18T08:22:49.734Z,100486.90
2023-07-18T08:25:21.024Z,100498.58
2023-07-18T08:27:52.186Z,100498.05
2023-07-18T08:30:25.765Z,100499.22
2023-07-18T08:32:57.001Z,100491.80
2023-07-18T08:35:27.127Z,100495.98
2023-07-18T08:38:01.365Z,100488.92
2023-07-18T08:40:35.978Z,100492.54
2023-07-18T08:43:15.606Z,100492.02
2023-07-18T08:45:55.657Z,100494.45
2023-07-18T08:48:29.007Z,100489.46
2023-07-18T08:51:04.892Z,100482.04
2023-07-18T08:53:36.317Z,100486.66
2023-07-18T08:56:11.406Z,100488.80
2023-07-18T08:58:41.748Z,100492.37
2023-07-18T09:01:17.544Z,100486.40
2023-07-18T09:03:53.243Z,100483.20
2023-07-18T09:06:24.007Z,100483.94
2023-07-18T09:08:55.990Z,100483.55
2023-07-18T09:11:27.485Z,100483.20
2023-07-18T09:13:57.154Z,100486.20
2023-07-18T09:16:27.054Z,100487.50
2023-07-18T09:18:58.229Z,100487.16
2023-07-18T09:21:28.060Z,100486.75
2023-07-18T09:23:56.888Z,100479.52
2023-07-18T09:26:26.119Z,100474.98
2023-07-18T09:29:00.642Z,100478.14
2023-07-18T09:31:30.320Z,100475.93
2023-07-18T09:34:00.852Z,100477.72
2023-07-18T09:36:29.898Z,100473.88
2023-07-18T09:39:01.043Z,100469.80
2023-07-18T09:41:31.796Z,100466.09
2023-07-18T09:44:27.407Z,100471.63
2023-07-18T09:46:52.571Z,100470.09
2023-07-18T09:49:24.822Z,100461.55
2023-07-18T09:52:03.397Z,100458.12
2023-07-18T09:54:33.474Z,100459.25
2023-07-18T09:57:06.360Z,100458.31
2023-07-18T09:59:39.480Z,100452.27
2023-07-18T10:02:11.078Z,100453.34
2023-07-18T10:04:40.537Z,100455.57
2023-07-18T10:07:10.464Z,100454.02
2023-07-18T10:09:40.407Z,100451.77
2023-07-18T10:12:11.348Z,100457.30
2023-07-18T10:14:57.455Z,100453.16
2023-07-18T10:17:37.949Z,100451.34
2023-07-18T10:20:13.138Z,100446.79
2023-07-18T10:22:50.131Z,100446.89
2023-07-18T10:25:20.847Z,100447.77
2023-07-18T10:27:50.872Z,100437.83
2023-07-18T10:30:20.943Z,100435.44
2023-07-18T10:32:55.203Z,100436.45
2023-07-18T10:35:26.648Z,100435.15
2023-07-18T10:37:57.297Z,100432.30
2023-07-18T10:40:39.928Z,100430.25
2023-07-18T10:43:10.925Z,100429.67
2023-07-18T10:45:41.353Z,100421.77
2023-07-18T10:48:15.459Z,100417.45
2023-07-18T10:50:45.559Z,100412.59
2023-07-18T10:53:16.355Z,100412.77
2023-07-18T10:55:46.313Z,100413.99
2023-07-18T10:58:18.963Z,100412.96
2023-07-18T11:00:49.303Z,100411.79
2023-07-18T11:03:22.424Z,100406.07
2023-07-18T11:05:52.485Z,100404.45
2023-07-18T11:08:28.533Z,100403.86
2023-07-18T11:11:00.227Z,100407.63
2023-07-18T11:13:33.540Z,100405.42
2023-07-18T11:16:07.537Z,100402.95
2023-07-18T11:18:37.880Z,100408.89
2023-07-18T11:21:07.979Z,100408.77
2023-07-18T11:23:38.839Z,100408.01
2023-07-18T11:26:13.588Z,100404.77
2023-07-18T11:28:44.385Z,100399.66
2023-07-18T11:34:01.316Z,100397.00
2023-07-18T11:36:32.148Z,100393.66
2023-07-18T11:39:01.979Z,100394.91
2023-07-18T11:41:40.552Z,100397.20
2023-07-18T11:44:10.772Z,100391.02
2023-07-18T11:46:41.717Z,100400.14
2023-07-18T11:49:13.187Z,100397.61
2023-07-18T11:51:44.606Z,100401.02
2023-07-18T11:54:13.741Z,100394.17
2023-07-18T11:56:42.917Z,100391.12
2023-07-18T11:59:11.749Z,100393.09
2023-07-18T12:01:40.755Z,100392.67
2023-07-18T12:04:14.793Z,100391.30
2023-07-18T12:06:44.091Z,100386.42
2023-07-18T12:09:12.963Z,100380.05
2023-07-18T12:11:43.613Z,100383.96
2023-07-18T12:14:12.595Z,100382.14
2023-07-18T12:16:41.684Z,100370.03
2023-07-18T12:19:10.755Z,100360.94
2023-07-18T12:21:40.112Z,100357.17
2023-07-18T12:24:09.663Z,100360.40
2023-07-18T12:26:38.693Z,100360.66
2023-07-18T12:29:07.641Z,100353.41
2023-07-18T12:31:37.372Z,100359.61
2023-07-18T12:34:06.471Z,100363.33
2023-07-18T12:36:35.431Z,100348.73
2023-07-18T12:39:04.512Z,100344.41
2023-07-18T12:41:33.625Z,100345.65
2023-07-18T12:44:02.511Z,100338.22
2023-07-18T12:46:31.668Z,100335.29
2023-07-18T12:51:32.902Z,100339.20
2023-07-18T12:54:01.981Z,100331.80
2023-07-18T12:56:31.674Z,100334.38
2023-07-18T12:59:00.728Z,100332.95
2023-07-18T13:01:29.932Z,100327.69
2023-07-18T13:03:59.192Z,100328.65
2023-07-18T13:06:27.966Z,100329.02
2023-07-18T13:08:58.715Z,100327.84
2023-07-18T13:11:27.757Z,100318.55
2023-07-18T13:13:57.105Z,100316.96
2023-07-18T13:16:26.145Z,100312.67
2023-07-18T13:18:55.179Z,100310.39
2023-07-18T13:21:30.477Z,100315.66
2023-07-18T13:24:00.949Z,100312.05
2023-07-18T13:26:39.547Z,100309.63
2023-07-18T13:29:09.630Z,100299.77
2023-07-18T13:31:39.209Z,100303.64
2023-07-18T13:34:11.198Z,100301.60
2023-07-18T13:36:42.245Z,100299.79
2023-07-18T13:39:15.341Z,100298.41
2023-07-18T13:41:44.709Z,100298.55
2023-07-18T13:44:13.848Z,100296.96
2023-07-18T13:46:43.533Z,100290.30
2023-07-18T13:49:12.789Z,100288.39
2023-07-18T13:51:41.792Z,100281.11
2023-07-18T13:54:10.985Z,100280.80
2023-07-18T13:56:40.300Z,100284.13
2023-07-18T13:59:09.465Z,100276.84
2023-07-18T14:01:38.931Z,100270.91
2023-07-18T14:04:08.306Z,100268.31
2023-07-18T14:06:37.256Z,100262.25
2023-07-18T14:09:06.274Z,100255.63
2023-07-18T14:11:35.561Z,100249.90
2023-07-18T14:14:04.644Z,100249.09
2023-07-18T14:16:33.762Z,100243.74
2023-07-18T14:19:02.901Z,100241.63
2023-07-18T14:21:32.042Z,100243.11
2023-07-18T14:24:04.198Z,100236.95
2023-07-18T14:26:33.309Z,100235.59
2023-07-18T14:29:02.226Z,100239.29
2023-07-18T14:31:31.359Z,100239.81
2023-07-18T14:34:06.878Z,100242.29
2023-07-18T14:36:36.573Z,100235.30
2023-07-18T14:39:05.694Z,100229.13
2023-07-18T14:41:35.337Z,100224.69
2023-07-18T14:44:05.699Z,100230.31
2023-07-18T14:46:34.664Z,100230.67
2023-07-18T14:49:03.834Z,100231.13
2023-07-18T14:51:33.078Z,100232.27
2023-07-18T14:54:01.903Z,100235.10
2023-07-18T14:56:32.483Z,100227.10
2023-07-18T14:59:01.575Z,100227.59
2023-07-18T15:01:33.869Z,100221.88
2023-07-18T15:04:02.738Z,100222.29
2023-07-18T15:06:31.923Z,100223.88
2023-07-18T15:09:00.736Z,100220.89
2023-07-18T15:11:29.917Z,100230.30
2023-07-18T15:13:58.943Z,100224.92
2023-07-18T15:16:29.065Z,100224.86
2023-07-18T15:18:58.243Z,100228.88
2023-07-18T15:21:29.250Z,100227.75
2023-07-18T15:23:58.319Z,100225.52
2023-07-18T15:26:27.538Z,100225.17
2023-07-18T15:28:58.676Z,100218.84
2023-07-18T15:31:27.694Z,100220.27
2023-07-18T15:33:57.021Z,100218.28
2023-07-18T15:36:26.365Z,100220.73
2023-07-18T15:38:55.222Z,100212.24
2023-07-18T15:41:24.664Z,100212.15
2023-07-18T15:43:54.054Z,100206.45
2023-07-18T15:46:23.894Z,100206.90
2023-07-18T15:48:53.257Z,100205.02
2023-07-18T15:51:22.211Z,100197.27
2023-07-18T15:53:51.400Z,100196.60
2023-07-18T15:56:20.647Z,100194.58
2023-07-18T15:58:50.128Z,100193.52
2023-07-18T16:01:19.239Z,100196.15
2023-07-18T16:03:48.603Z,100194.86
2023-07-18T16:06:18.162Z,100189.35
2023-07-18T16:11:23.894Z,100190.66
2023-07-18T16:13:52.994Z,100186.70
2023-07-18T16:16:24.910Z,100181.37
2023-07-18T16:18:57.306Z,100182.77
2023-07-18T16:21:27.002Z,100181.27
2023-07-18T16:23:56.036Z,100176.77
2023-07-18T16:26:27.330Z,100179.19
2023-07-18T16:28:56.703Z,100175.27
2023-07-18T16:31:27.002Z,100176.09
2023-07-18T16:33:56.582Z,100177.44
2023-07-18T16:36:26.338Z,100171.85
2023-07-18T16:39:07.193Z,100172.98
2023-07-18T16:41:40.099Z,100174.38
2023-07-18T16:44:11.404Z,100173.23
2023-07-18T16:46:42.339Z,100171.42
2023-07-18T16:49:11.738Z,100167.43
2023-07-18T16:51:41.534Z,100163.95
2023-07-18T16:54:11.039Z,100159.66
2023-07-18T16:56:40.870Z,100159.10
2023-07-18T16:59:10.499Z,100158.30
2023-07-18T17:01:40.567Z,100157.54
2023-07-18T17:04:11.388Z,100156.11
2023-07-18T17:06:42.453Z,100152.83
2023-07-18T17:09:13.348Z,100151.69
2023-07-18T17:11:45.532Z,100146.61
2023-07-18T17:14:15.373Z,100146.68
2023-07-18T17:16:47.680Z,100143.30
2023-07-18T17:19:20.204Z,100139.96
2023-07-18T17:21:50.349Z,100134.17
2023-07-18T17:24:21.536Z,100137.44
2023-07-18T17:26:53.022Z,100133.96
2023-07-18T17:29:24.863Z,100129.46
2023-07-18T17:31:56.677Z,100127.66
2023-07-18T17:34:28.318Z,100120.55
2023-07-18T17:37:01.466Z,100121.12
2023-07-18T17:39:33.569Z,100118.55
2023-07-18T17:42:05.157Z,100116.08
2023-07-18T17:44:37.187Z,100107.40
2023-07-18T17:47:07.675Z,100105.06
2023-07-18T17:49:37.714Z,100102.84
2023-07-18T17:52:09.537Z,100098.50
2023-07-18T17:54:40.995Z,100098.64
2023-07-18T17:57:10.885Z,100090.42
2023-07-18T17:59:42.658Z,100089.95
2023-07-18T18:02:14.755Z,100090.91
2023-07-18T18:04:45.044Z,100088.69
2023-07-18T18:07:15.714Z,100086.34
2023-07-18T18:09:49.020Z,100084.47
2023-07-18T18:12:21.707Z,100082.56
2023-07-18T18:14:53.263Z,100084.63
2023-07-18T18:17:25.098Z,100082.73
2023-07-18T18:19:55.505Z,100082.25
2023-07-18T18:22:25.796Z,100077.05
2023-07-18T18:24:58.578Z,100074.77
2023-07-18T18:27:38.682Z,100074.27
2023-07-18T18:30:15.478Z,100077.03
2023-07-18T18:32:45.683Z,100080.55
2023-07-18T18:35:27.780Z,100072.05
2023-07-18T18:37:59.299Z,100076.52
2023-07-18T18:40:29.865Z,100080.48
2023-07-18T18:43:08.566Z,100084.81
2023-07-18T18:48:40.301Z,100091.77
2023-07-18T18:51:27.783Z,100096.02
2023-07-18T18:54:14.227Z,100101.01
2023-07-18T18:56:46.091Z,100098.52
2023-07-18T18:59:24.930Z,100096.09
2023-07-18T19:02:01.036Z,100097.38
2023-07-18T19:04:38.609Z,100105.66
2023-07-18T19:07:16.518Z,100104.62
2023-07-18T19:10:03.654Z,100105.91
2023-07-18T19:12:33.888Z,100105.41
2023-07-18T19:15:06.335Z,100109.23
2023-07-18T19:17:39.209Z,100112.60
2023-07-18T19:20:12.662Z,100119.30
2023-07-18T19:22:44.147Z,100117.41
2023-07-18T19:25:15.241Z,100119.77
2023-07-18T19:27:47.489Z,100114.03
2023-07-18T19:30:17.862Z,100115.77
2023-07-18T19:32:48.984Z,100113.94
2023-07-18T19:35:21.888Z,100113.05
2023-07-18T19:37:53.188Z,100116.90
2023-07-18T19:40:27.786Z,100116.96
2023-07-18T19:43:00.132Z,100117.86
2023-07-18T19:45:30.958Z,100117.92
2023-07-18T19:48:08.161Z,100115.66
2023-07-18T19:50:41.876Z,100119.66
2023-07-18T19:53:14.509Z,100120.64
2023-07-18T19:55:45.481Z,100117.20
2023-07-18T19:58:16.659Z,100112.50
2023-07-18T20:00:47.587Z,100113.89
2023-07-18T20:03:18.533Z,100108.52
2023-07-18T20:05:48.756Z,100107.27
2023-07-18T20:08:18.868Z,100109.41
2023-07-18T20:10:47.934Z,100113.39
2023-07-18T20:13:17.669Z,100112.77
2023-07-18T20:15:47.776Z,100111.73
2023-07-18T20:18:17.563Z,100110.30
2023-07-18T20:20:47.152Z,100116.02
2023-07-18T20:23:16.609Z,100107.07
2023-07-18T20:25:45.964Z,100108.27
2023-07-18T20:28:15.055Z,100104.34
2023-07-18T20:30:44.540Z,100110.07
2023-07-18T20:33:14.562Z,100111.85
2023-07-18T20:35:44.985Z,100114.42
2023-07-18T20:38:15.789Z,100119.61
2023-07-18T20:40:46.840Z,100116.48
2023-07-18T20:43:17.723Z,100109.70
2023-07-18T20:46:03.378Z,100110.33
2023-07-18T20:48:34.543Z,100108.67
2023-07-18T20:51:06.692Z,100111.27
2023-07-18T20:53:37.707Z,100111.56
2023-07-18T20:56:10.088Z,100111.19
2023-07-18T20:58:41.592Z,100113.51
2023-07-18T21:01:11.018Z,100110.66
2023-07-18T21:03:40.132Z,100113.94
2023-07-18T21:06:09.460Z,100114.34
2023-07-18T21:08:38.858Z,100112.73
2023-07-18T21:11:08.513Z,100116.89
2023-07-18T21:13:38.963Z,100119.67
2023-07-18T21:16:08.564Z,100120.30
2023-07-18T21:18:37.552Z,100120.41
2023-07-18T21:21:07.095Z,100119.02
2023-07-18T21:23:35.876Z,100112.58
2023-07-18T21:26:04.751Z,100115.69
2023-07-18T21:28:33.647Z,100110.63
2023-07-18T21:31:02.580Z,100106.14
2023-07-18T21:33:31.628Z,100102.66
2023-07-18T21:36:00.572Z,100097.20
2023-07-18T21:38:29.574Z,100099.11
2023-07-18T21:40:59.538Z,100101.12
2023-07-18T21:43:28.535Z,100103.27
2023-07-18T21:45:57.738Z,100097.98
2023-07-18T21:48:26.710Z,100102.23
2023-07-18T21:50:55.606Z,100095.22
2023-07-18T21:53:24.640Z,100092.62
2023-07-18T21:55:54.024Z,100088.98
2023-07-18T21:58:23.009Z,100085.58
2023-07-18T22:00:52.186Z,100082.89
2023-07-18T22:03:20.992Z,100077.36
2023-07-18T22:05:50.951Z,100083.93
2023-07-18T22:08:19.972Z,100083.19
2023-07-18T22:10:49.032Z,100077.29
2023-07-18T22:13:18.274Z,100080.27
2023-07-18T22:15:48.013Z,100082.94
2023-07-18T22:18:26.619Z,100081.67
2023-07-18T22:20:57.123Z,100075.01
2023-07-18T22:23:25.771Z,100071.54
2023-07-18T22:26:12.832Z,100063.98
2023-07-18T22:28:43.484Z,100061.55
2023-07-18T22:31:13.164Z,100054.48
2023-07-18T22:33:41.990Z,100053.40
2023-07-18T22:36:10.901Z,100047.86
2023-07-18T22:38:40.193Z,100043.94
2023-07-18T22:41:09.095Z,100037.32
2023-07-18T22:43:38.355Z,100036.29
2023-07-18T22:46:07.184Z,100042.66
2023-07-18T22:48:36.091Z,100044.40
2023-07-18T22:51:04.838Z,100048.08
2023-07-18T22:53:34.101Z,100045.33
2023-07-18T22:56:02.892Z,100048.17
2023-07-18T22:58:31.932Z,100049.52
2023-07-18T23:01:00.879Z,100047.15
2023-07-18T23:03:29.805Z,100041.07
2023-07-18T23:05:59.145Z,100039.08
2023-07-18T23:08:27.973Z,100035.27
2023-07-18T23:10:57.051Z,100030.25
2023-07-18T23:13:25.965Z,100027.46
2023-07-18T23:15:54.713Z,100024.95
2023-07-18T23:18:24.254Z,100020.78
2023-07-18T23:20:53.115Z,100015.99
2023-07-18T23:23:21.923Z,100015.92
2023-07-18T23:25:50.837Z,100011.48
2023-07-18T23:28:20.978Z,100008.61
2023-07-18T23:30:50.593Z,100009.16
2023-07-18T23:33:19.523Z,100004.16
2023-07-18T23:35:49.554Z,100003.50
2023-07-18T23:38:19.486Z,99999.27
2023-07-18T23:40:48.986Z,99997.48
2023-07-18T23:43:18.919Z,99992.53
2023-07-18T23:45:48.057Z,99990.34
2023-07-18T23:48:17.075Z,99989.02
2023-07-18T23:50:46.587Z,99985.41
2023-07-18T23:53:16.154Z,99984.27
2023-07-18T23:55:45.433Z,99983.05
2023-07-18T23:58:15.200Z,99982.84
